Burnet Woods, Ohio
Current Conditions -  °F | °C
As of 12:53 AM on Thursday 18 Dec 2014 (Local Time) from KLUK Reporting Station
Overcast Overcast  
Wind Chill: 19°   Ceiling: 1900
Heat Index: 27°   Visibility: 10mi
Dew Point: 20°   Wind: 8mph
Humidity: 75%   Direction: 360°N
Pressure: 30.31"   Gusts: NA
Location:  39.1477°N, 84.5204°W
Report Text: KLUK 180553Z AUTO 36007KT 10SM OVC019 M03/M07 A3031 RMK AO2 SLP268 T10281067 11011 21028 53003
Loading
Personal Weather Stations






























Interactive Weather Map New forecast layout! Learn more

10-Day Weather Forecast

Advertisements
Track Severe Weather on mobile